METAR Data

Data at: 0901 UTC 23 Jul 2019

METAR for:KEWR (Newark Intl, NJ, US)
Text:KEWR 230851Z 36013KT 2SM R04R/3500VP6000FT +RA BR OVC007 21/20 A2971 RMK AO2 SLP060 CIG 005V009 P0023 60024 T02060200 57014 $
Temperature: 20.6°C ( 69°F)
Dewpoint: 20.0°C ( 68°F) [RH = 96%]
Pressure (altimeter):29.71 inches Hg (1006.2 mb) [Sea level pressure: 1006.0 mb]
Winds:from the N (360 degrees) at 15 MPH (13 knots; 6.7 m/s)
Visibility: 2.00 sm ( 3.22 km)
Ceiling:700 feet AGL
Clouds: overcast cloud deck at 700 feet AGL
Weather:+RA BR (heavy rain, mist)
QC Flag:SOME DATA ABOVE MAY BE INACCURATE!!!"$" is an indication the sensor requires maintenance.